Terminal Aerodrome Forecast
Issued by NWS

Home | Current Version | Previous Version | Graphics & Text | Print | Product List | Glossary On
Versions: 1 2 3 4 5 6 7 8 9 10 11 12 13 14 15 16 17 18 19 20 21 22
594
FTUS43 KLOT 241510 AAA
TAFORD
TAF AMD
KORD 241510Z 2415/2518 12009KT P6SM SCT250
     FM242100 09011KT P6SM SCT250
     FM250200 13007KT P6SM SCT150 BKN250=

USA.gov is the U.S. government's official web portal to all federal, state and local government web resources and services.